Time;durP1;ratioP1;P1;durP2;ratioP2;P2;SDS_P1;SDS_P2;PMS_P1;PMS_P2;Temp;Humidity;BMP_temperature;BMP_pressure;BME280_temperature;BME280_humidity;BME280_pressure;Samples;Min_cycle;Max_cycle;Signal;HPM_P1;HPM_P2
2022/05/03 00:02:39;;;;;;;5.38;3.70;;;;;;;;;;4986150;28;20030;-75
2022/05/03 00:05:11;;;;;;;6.45;3.40;;;;;;;;;;4989698;28;20522;-75
2022/05/03 00:08:09;;;;;;;6.53;3.60;;;;;;;;;;4989650;28;20064;-75
2022/05/03 00:11:09;;;;;;;7.70;3.92;;;;;;;;;;4988022;28;20344;-75
2022/05/03 00:13:43;;;;;;;3.53;3.05;;;;;;;;;;4991000;28;20157;-76
2022/05/03 00:16:10;;;;;;;5.43;3.90;;;;;;;;;;4990627;28;20026;-75
2022/05/03 00:18:35;;;;;;;4.95;3.55;;;;;;;;;;4992423;28;20030;-75
2022/05/03 00:21:02;;;;;;;4.65;3.55;;;;;;;;;;4992562;28;20597;-75
2022/05/03 00:23:28;;;;;;;5.07;3.55;;;;;;;;;;4991146;28;20150;-74
2022/05/03 00:25:55;;;;;;;4.43;3.65;;;;;;;;;;4993377;28;20113;-74
2022/05/03 00:28:21;;;;;;;4.70;3.22;;;;;;;;;;4992199;28;20050;-75
2022/05/03 00:30:48;;;;;;;4.93;3.30;;;;;;;;;;4987772;28;20034;-76
2022/05/03 00:33:15;;;;;;;3.58;3.15;;;;;;;;;;4990548;28;20042;-74
2022/05/03 00:35:42;;;;;;;4.22;3.28;;;;;;;;;;4989177;28;20081;-76
2022/05/03 00:38:07;;;;;;;4.72;3.38;;;;;;;;;;4991360;28;20088;-76
2022/05/03 00:40:33;;;;;;;5.82;3.55;;;;;;;;;;5006812;28;20521;-75
2022/05/03 00:43:11;;;;;;;9.68;3.60;;;;;;;;;;4992163;28;20072;-76
2022/05/03 00:45:47;;;;;;;4.15;3.55;;;;;;;;;;4989943;28;20030;-73
2022/05/03 00:48:36;;;;;;;4.05;3.22;;;;;;;;;;4991218;28;20069;-75
2022/05/03 00:51:29;;;;;;;5.50;3.33;;;;;;;;;;4988577;28;20521;-75
2022/05/03 00:54:12;;;;;;;5.50;3.58;;;;;;;;;;4991535;28;20073;-75
2022/05/03 00:56:59;;;;;;;5.95;3.13;;;;;;;;;;4989527;28;20478;-76
2022/05/03 00:59:43;;;;;;;3.83;3.30;;;;;;;;;;4990728;28;20040;-76
2022/05/03 01:02:13;;;;;;;5.20;3.63;;;;;;;;;;4989104;28;20031;-69
2022/05/03 01:05:06;;;;;;;6.18;3.70;;;;;;;;;;4988621;28;20030;-70
2022/05/03 01:07:36;;;;;;;;;;;;;;;;;;4990234;28;20050;-67
2022/05/03 01:10:11;;;;;;;4.85;3.47;;;;;;;;;;4989327;28;20373;-69
2022/05/03 01:12:43;;;;;;;9.00;3.42;;;;;;;;;;4991294;28;20026;-69
2022/05/03 01:15:31;;;;;;;5.57;3.40;;;;;;;;;;4985252;28;20039;-74
2022/05/03 01:18:18;;;;;;;5.22;3.53;;;;;;;;;;4973257;28;20023;-70
2022/05/03 01:21:08;;;;;;;5.10;3.88;;;;;;;;;;4970060;28;20050;-69
2022/05/03 01:24:01;;;;;;;7.50;3.50;;;;;;;;;;4970987;28;20117;-70
2022/05/03 01:26:57;;;;;;;6.30;3.67;;;;;;;;;;4968868;28;20031;-72
2022/05/03 01:29:31;;;;;;;4.35;3.72;;;;;;;;;;4972128;28;20066;-70
2022/05/03 01:32:01;;;;;;;3.95;3.55;;;;;;;;;;4971750;28;20075;-70
2022/05/03 01:34:29;;;;;;;6.15;3.95;;;;;;;;;;4970345;28;20121;-72
2022/05/03 01:37:13;;;;;;;4.43;3.60;;;;;;;;;;4970311;28;20041;-70
2022/05/03 01:39:42;;;;;;;4.28;3.70;;;;;;;;;;4988588;28;20073;-71
2022/05/03 01:42:41;;;;;;;4.35;3.95;;;;;;;;;;4990086;28;20106;-74
2022/05/03 01:45:09;;;;;;;7.43;3.80;;;;;;;;;;4989227;28;20050;-70
2022/05/03 01:47:58;;;;;;;6.57;3.88;;;;;;;;;;4988042;28;20114;-71
2022/05/03 01:50:30;;;;;;;7.05;3.90;;;;;;;;;;4987982;28;20038;-70
2022/05/03 01:53:32;;;;;;;6.57;3.53;;;;;;;;;;4988158;28;20058;-72
2022/05/03 01:56:19;;;;;;;5.25;4.10;;;;;;;;;;4988915;28;20069;-71
2022/05/03 01:59:15;;;;;;;6.28;4.13;;;;;;;;;;4988935;28;20133;-73
2022/05/03 02:01:41;;;;;;;5.00;3.83;;;;;;;;;;4985303;28;20533;-70
2022/05/03 02:04:25;;;;;;;6.57;3.92;;;;;;;;;;4970048;28;20034;-68
2022/05/03 02:07:15;;;;;;;8.82;4.20;;;;;;;;;;4989243;28;20113;-71
2022/05/03 02:10:03;;;;;;;5.85;3.85;;;;;;;;;;4988049;28;20046;-70
2022/05/03 02:12:29;;;;;;;6.97;3.92;;;;;;;;;;4990729;28;20509;-70
2022/05/03 02:15:04;;;;;;;5.38;3.72;;;;;;;;;;4987715;28;20042;-71
2022/05/03 02:18:06;;;;;;;3.78;3.40;;;;;;;;;;4989682;28;20026;-70
2022/05/03 02:21:13;;;;;;;6.93;3.88;;;;;;;;;;4987674;28;20046;-71
2022/05/03 02:24:10;;;;;;;6.47;4.18;;;;;;;;;;4989886;28;20030;-72
2022/05/03 02:26:49;;;;;;;5.75;4.18;;;;;;;;;;4986693;28;20068;-70
2022/05/03 02:29:17;;;;;;;10.35;4.13;;;;;;;;;;5008788;28;20062;-70
2022/05/03 02:32:01;;;;;;;6.18;4.20;;;;;;;;;;4985203;28;20039;-69
2022/05/03 02:34:32;;;;;;;6.20;3.83;;;;;;;;;;4974718;28;20501;-74
2022/05/03 02:37:11;;;;;;;4.95;3.90;;;;;;;;;;4987373;28;20038;-72
2022/05/03 02:39:41;;;;;;;8.48;4.10;;;;;;;;;;4988423;28;20026;-70
2022/05/03 02:42:09;;;;;;;5.97;4.00;;;;;;;;;;4986742;28;20465;-76
2022/05/03 02:44:38;;;;;;;6.32;4.13;;;;;;;;;;4992856;28;20022;-75
2022/05/03 02:47:09;;;;;;;7.00;4.32;;;;;;;;;;4991803;28;20101;-76
2022/05/03 02:49:44;;;;;;;6.72;4.15;;;;;;;;;;4993919;28;20057;-77
2022/05/03 02:52:43;;;;;;;7.25;4.07;;;;;;;;;;5009044;28;20057;-76
2022/05/03 02:55:34;;;;;;;8.32;4.50;;;;;;;;;;4994071;28;20101;-76
2022/05/03 02:58:24;;;;;;;5.95;4.00;;;;;;;;;;4994032;28;20092;-76
2022/05/03 03:04:02;;;;;;;7.85;4.25;;;;;;;;;;4992210;28;20045;-73
2022/05/03 03:06:32;;;;;;;6.93;4.13;;;;;;;;;;4992824;28;20053;-74
2022/05/03 03:09:01;;;;;;;6.00;4.57;;;;;;;;;;4992956;28;20097;-74
2022/05/03 03:11:30;;;;;;;8.30;4.53;;;;;;;;;;4994892;28;20022;-73
2022/05/03 03:14:08;;;;;;;5.30;4.68;;;;;;;;;;4993057;28;20054;-73
2022/05/03 03:16:39;;;;;;;5.20;4.30;;;;;;;;;;4991644;28;20030;-74
2022/05/03 03:19:22;;;;;;;8.15;4.93;;;;;;;;;;5007042;28;20109;-75
2022/05/03 03:21:48;;;;;;;;;;;;;;;;;;4993192;28;20035;-72
2022/05/03 03:24:16;;;;;;;5.88;4.30;;;;;;;;;;4993617;28;19945;-74
2022/05/03 03:26:44;;;;;;;6.78;4.18;;;;;;;;;;4992395;28;20030;-74
2022/05/03 03:29:11;;;;;;;6.63;5.07;;;;;;;;;;4992930;28;20952;-74
2022/05/03 03:31:37;;;;;;;7.78;4.65;;;;;;;;;;4990443;28;20035;-75
2022/05/03 03:34:04;;;;;;;7.40;4.70;;;;;;;;;;4990101;28;20103;-74
2022/05/03 03:36:31;;;;;;;7.18;4.80;;;;;;;;;;4992153;28;20475;-75
2022/05/03 03:38:57;;;;;;;8.75;4.40;;;;;;;;;;4991953;28;20061;-74
2022/05/03 03:41:23;;;;;;;9.65;4.65;;;;;;;;;;4976572;28;20502;-74
2022/05/03 03:43:49;;;;;;;6.85;4.70;;;;;;;;;;4993425;28;20038;-74
2022/05/03 03:46:14;;;;;;;5.97;4.22;;;;;;;;;;5006372;28;20100;-76
2022/05/03 03:48:40;;;;;;;6.10;4.63;;;;;;;;;;4992625;28;20027;-73
2022/05/03 03:51:06;;;;;;;7.22;4.55;;;;;;;;;;4993792;28;20050;-75
2022/05/03 03:53:33;;;;;;;6.07;4.45;;;;;;;;;;4993122;28;20030;-75
2022/05/03 03:56:00;;;;;;;10.77;4.60;;;;;;;;;;4991934;28;20052;-75
2022/05/03 03:58:26;;;;;;;8.23;4.68;;;;;;;;;;4992244;28;20437;-73
2022/05/03 04:00:51;;;;;;;8.15;5.28;;;;;;;;;;4992548;28;20129;-75
2022/05/03 04:03:18;;;;;;;6.65;4.28;;;;;;;;;;4991738;28;20473;-74
2022/05/03 04:05:44;;;;;;;5.85;4.30;;;;;;;;;;4991402;28;20438;-74
2022/05/03 04:08:10;;;;;;;8.07;4.70;;;;;;;;;;4988645;28;20112;-75
2022/05/03 04:10:35;;;;;;;9.00;4.60;;;;;;;;;;4991925;28;20070;-75
2022/05/03 04:13:01;;;;;;;7.32;4.70;;;;;;;;;;4991302;28;20070;-76
2022/05/03 04:15:26;;;;;;;6.40;4.90;;;;;;;;;;4990925;28;20030;-73
2022/05/03 04:17:52;;;;;;;9.23;5.18;;;;;;;;;;4990076;28;20169;-73
2022/05/03 04:20:18;;;;;;;9.68;4.93;;;;;;;;;;4992629;28;20493;-75
2022/05/03 04:22:44;;;;;;;6.57;5.03;;;;;;;;;;4990552;28;20042;-75
2022/05/03 04:25:10;;;;;;;7.10;4.50;;;;;;;;;;4991663;28;20125;-74
2022/05/03 04:27:36;;;;;;;5.70;4.25;;;;;;;;;;4992556;28;20117;-75
2022/05/03 04:30:03;;;;;;;8.93;5.10;;;;;;;;;;4990716;28;20145;-75
2022/05/03 04:32:29;;;;;;;11.73;4.85;;;;;;;;;;4992036;28;20030;-75
2022/05/03 04:34:55;;;;;;;8.15;4.90;;;;;;;;;;4990996;28;20042;-75
2022/05/03 04:37:20;;;;;;;6.05;4.60;;;;;;;;;;4989412;28;20065;-74
2022/05/03 04:39:45;;;;;;;5.20;4.70;;;;;;;;;;4992100;28;20145;-77
2022/05/03 04:42:11;;;;;;;7.70;4.90;;;;;;;;;;4991560;28;20456;-75
2022/05/03 04:44:37;;;;;;;8.82;4.75;;;;;;;;;;4992054;28;20126;-75
2022/05/03 04:47:02;;;;;;;7.18;5.25;;;;;;;;;;4993940;28;20080;-73
2022/05/03 04:49:28;;;;;;;7.90;5.78;;;;;;;;;;4991096;28;20042;-75
2022/05/03 04:51:54;;;;;;;7.80;4.93;;;;;;;;;;4989945;28;20402;-74
2022/05/03 04:54:19;;;;;;;6.78;5.30;;;;;;;;;;4992015;28;20038;-75
2022/05/03 04:56:51;;;;;;;8.15;5.05;;;;;;;;;;4991657;28;20029;-75
2022/05/03 04:59:17;;;;;;;7.35;5.13;;;;;;;;;;4992590;28;20053;-75
2022/05/03 05:01:42;;;;;;;7.75;5.32;;;;;;;;;;4990157;28;20026;-75
2022/05/03 05:04:07;;;;;;;7.72;5.32;;;;;;;;;;4991300;28;20030;-75
2022/05/03 05:06:33;;;;;;;8.95;5.55;;;;;;;;;;4991043;28;20394;-75
2022/05/03 05:08:58;;;;;;;9.57;5.32;;;;;;;;;;4990937;28;20026;-74
2022/05/03 05:11:23;;;;;;;6.25;4.97;;;;;;;;;;4992241;28;20069;-76
2022/05/03 05:13:50;;;;;;;6.90;4.90;;;;;;;;;;4991613;28;20037;-75
2022/05/03 05:16:15;;;;;;;6.80;4.63;;;;;;;;;;4991530;28;20045;-75
2022/05/03 05:18:41;;;;;;;7.07;4.53;;;;;;;;;;4991297;28;20494;-76
2022/05/03 05:21:06;;;;;;;5.80;4.38;;;;;;;;;;4988885;28;20030;-74
2022/05/03 05:23:31;;;;;;;6.78;4.40;;;;;;;;;;4992140;28;20490;-76
2022/05/03 05:25:57;;;;;;;6.97;4.78;;;;;;;;;;4990595;28;20030;-75
2022/05/03 05:28:23;;;;;;;7.22;4.65;;;;;;;;;;4991324;28;20069;-75
2022/05/03 05:30:51;;;;;;;6.70;4.72;;;;;;;;;;4990580;28;20510;-74
2022/05/03 05:33:17;;;;;;;8.90;4.65;;;;;;;;;;4990235;28;20043;-76
2022/05/03 05:35:43;;;;;;;6.65;5.18;;;;;;;;;;4991412;28;20034;-74
2022/05/03 05:38:09;;;;;;;11.10;5.00;;;;;;;;;;4991011;28;20154;-74
2022/05/03 05:40:34;;;;;;;10.75;5.05;;;;;;;;;;4988277;28;20046;-74
2022/05/03 05:43:01;;;;;;;9.15;5.22;;;;;;;;;;4983134;28;20042;-75
2022/05/03 05:45:27;;;;;;;7.45;5.13;;;;;;;;;;4991111;28;20031;-74
2022/05/03 05:47:52;;;;;;;7.93;5.03;;;;;;;;;;4989215;28;20121;-75
2022/05/03 05:50:17;;;;;;;6.28;4.78;;;;;;;;;;4991369;28;20120;-74
2022/05/03 05:55:27;;;;;;;7.40;4.32;;;;;;;;;;4989777;28;20064;-74
2022/05/03 05:57:53;;;;;;;9.88;5.18;;;;;;;;;;4990315;28;20411;-74
2022/05/03 06:00:19;;;;;;;7.32;4.80;;;;;;;;;;4990525;28;20421;-77
2022/05/03 06:02:44;;;;;;;11.65;4.70;;;;;;;;;;4989680;28;20123;-74
2022/05/03 06:05:10;;;;;;;8.43;4.78;;;;;;;;;;4991209;28;20042;-76
2022/05/03 06:07:35;;;;;;;7.07;4.65;;;;;;;;;;4991685;28;20512;-76
2022/05/03 06:10:00;;;;;;;10.20;4.75;;;;;;;;;;4992051;28;20035;-77
2022/05/03 06:12:26;;;;;;;9.60;4.35;;;;;;;;;;4992076;28;20039;-76
2022/05/03 06:14:52;;;;;;;8.75;4.82;;;;;;;;;;4989868;28;20046;-75
2022/05/03 06:17:17;;;;;;;9.40;4.60;;;;;;;;;;4995408;28;20030;-77
2022/05/03 06:19:43;;;;;;;4.72;4.32;;;;;;;;;;4993397;28;20039;-75
2022/05/03 06:22:09;;;;;;;7.25;5.20;;;;;;;;;;4994526;28;20493;-75
2022/05/03 06:24:34;;;;;;;7.20;4.35;;;;;;;;;;4994655;28;20058;-75
2022/05/03 06:26:59;;;;;;;6.85;5.13;;;;;;;;;;4995403;28;20513;-74
2022/05/03 06:29:25;;;;;;;5.50;4.07;;;;;;;;;;4995669;28;20030;-74
2022/05/03 06:31:51;;;;;;;9.02;4.90;;;;;;;;;;4992047;28;20041;-75
2022/05/03 06:34:16;;;;;;;6.00;4.43;;;;;;;;;;4994715;28;20061;-75
2022/05/03 06:36:42;;;;;;;7.68;4.85;;;;;;;;;;4993488;28;20046;-75
2022/05/03 06:39:07;;;;;;;5.20;4.30;;;;;;;;;;4994697;28;20045;-74
2022/05/03 06:41:33;;;;;;;6.85;4.95;;;;;;;;;;4994560;28;20033;-74
2022/05/03 06:44:00;;;;;;;7.80;4.72;;;;;;;;;;4994618;28;20080;-75
2022/05/03 06:46:26;;;;;;;4.93;4.22;;;;;;;;;;4993702;28;20102;-75
2022/05/03 06:48:52;;;;;;;7.18;4.32;;;;;;;;;;4994240;28;20042;-77
2022/05/03 06:51:17;;;;;;;6.60;4.88;;;;;;;;;;4993908;28;20405;-73
2022/05/03 06:53:43;;;;;;;8.95;4.90;;;;;;;;;;4994501;28;20022;-75
2022/05/03 06:56:09;;;;;;;8.43;4.85;;;;;;;;;;4995797;28;20054;-75
2022/05/03 06:58:34;;;;;;;7.10;4.18;;;;;;;;;;4990681;28;20445;-73
2022/05/03 07:01:14;;;;;;;7.72;4.57;;;;;;;;;;4994988;28;20045;-74
2022/05/03 07:03:40;;;;;;;8.40;4.60;;;;;;;;;;4994399;28;20138;-75
2022/05/03 07:06:06;;;;;;;5.88;3.95;;;;;;;;;;4993779;28;20555;-75
2022/05/03 07:08:33;;;;;;;6.07;4.28;;;;;;;;;;4993049;28;20030;-74
2022/05/03 07:10:58;;;;;;;9.32;4.43;;;;;;;;;;4992604;28;20030;-77
2022/05/03 07:13:24;;;;;;;8.20;4.20;;;;;;;;;;5007367;28;20481;-77
2022/05/03 07:15:55;;;;;;;5.07;4.43;;;;;;;;;;4992528;28;20128;-77
2022/05/03 07:23:51;;;;;;;5.00;4.05;;;;;;;;;;4994180;28;20098;-77
2022/05/03 07:26:17;;;;;;;6.50;4.63;;;;;;;;;;4995346;28;20053;-77
2022/05/03 07:28:42;;;;;;;7.50;3.90;;;;;;;;;;4995309;28;20497;-77
2022/05/03 07:31:11;;;;;;;8.50;4.45;;;;;;;;;;4995265;28;20034;-77
2022/05/03 07:33:37;;;;;;;7.20;4.30;;;;;;;;;;4994015;28;20038;-77
2022/05/03 07:36:05;;;;;;;6.90;4.07;;;;;;;;;;5009528;28;20452;-77
2022/05/03 07:38:31;;;;;;;4.78;4.05;;;;;;;;;;4991972;28;20584;-78
2022/05/03 07:40:56;;;;;;;7.32;3.90;;;;;;;;;;4995825;28;20026;-76
2022/05/03 07:43:23;;;;;;;5.35;4.07;;;;;;;;;;4995998;28;20034;-77
2022/05/03 07:45:48;;;;;;;5.78;3.83;;;;;;;;;;4993405;28;20429;-77
2022/05/03 07:48:14;;;;;;;7.32;3.97;;;;;;;;;;4992419;28;20054;-77
2022/05/03 07:50:39;;;;;;;7.85;4.18;;;;;;;;;;4995189;28;20533;-77
2022/05/03 07:53:05;;;;;;;6.90;4.30;;;;;;;;;;4995136;28;20019;-76
2022/05/03 07:55:30;;;;;;;5.00;4.20;;;;;;;;;;4993530;28;20126;-77
2022/05/03 07:57:56;;;;;;;11.07;3.88;;;;;;;;;;4991211;28;20495;-77
2022/05/03 08:00:21;;;;;;;5.47;4.20;;;;;;;;;;4993779;28;20495;-78
2022/05/03 08:02:46;;;;;;;9.10;4.43;;;;;;;;;;4991569;28;20382;-78
2022/05/03 08:05:12;;;;;;;4.78;3.83;;;;;;;;;;4994073;28;20364;-77
2022/05/03 08:07:37;;;;;;;7.93;4.25;;;;;;;;;;4992343;28;20138;-77
2022/05/03 08:10:03;;;;;;;8.32;4.25;;;;;;;;;;4992308;28;20054;-77
2022/05/03 08:12:29;;;;;;;5.50;3.92;;;;;;;;;;4993063;28;20538;-77
2022/05/03 08:14:56;;;;;;;5.45;3.90;;;;;;;;;;4993124;28;20122;-78
2022/05/03 08:17:24;;;;;;;5.88;4.25;;;;;;;;;;4993960;28;20026;-77
2022/05/03 08:19:49;;;;;;;6.60;4.25;;;;;;;;;;4989357;28;20070;-76
2022/05/03 08:22:15;;;;;;;7.43;3.90;;;;;;;;;;4988663;28;20030;-77
2022/05/03 08:24:40;;;;;;;6.25;4.00;;;;;;;;;;4992273;28;20030;-77
2022/05/03 08:27:06;;;;;;;6.97;4.28;;;;;;;;;;4992939;28;20487;-77
2022/05/03 08:29:31;;;;;;;7.03;4.07;;;;;;;;;;4990948;28;20023;-77
2022/05/03 08:31:58;;;;;;;4.00;3.63;;;;;;;;;;4992072;28;20033;-77
2022/05/03 08:34:24;;;;;;;7.28;3.88;;;;;;;;;;4992908;28;20041;-77
2022/05/03 08:42:18;;;;;;;8.77;3.78;;;;;;;;;;4994160;28;20038;-77
2022/05/03 08:44:43;;;;;;;6.50;4.07;;;;;;;;;;4992389;28;20470;-79
2022/05/03 08:47:09;;;;;;;5.35;3.83;;;;;;;;;;4992781;28;20053;-78
2022/05/03 08:49:52;;;;;;;5.28;3.83;;;;;;;;;;4992158;28;20041;-76
2022/05/03 08:52:21;;;;;;;6.65;3.88;;;;;;;;;;4990084;28;20490;-78
2022/05/03 08:54:46;;;;;;;4.75;3.42;;;;;;;;;;4992191;28;20034;-78
2022/05/03 08:57:13;;;;;;;10.43;4.03;;;;;;;;;;4990269;28;20117;-78
2022/05/03 08:59:39;;;;;;;9.63;3.70;;;;;;;;;;4991332;28;20026;-78
2022/05/03 09:02:05;;;;;;;4.78;3.35;;;;;;;;;;4991032;28;20482;-77
2022/05/03 09:04:31;;;;;;;6.65;3.85;;;;;;;;;;5004468;28;20121;-77
2022/05/03 09:06:56;;;;;;;4.97;3.85;;;;;;;;;;4990375;28;20139;-77
2022/05/03 09:09:22;;;;;;;5.38;3.63;;;;;;;;;;4991355;28;20038;-77
2022/05/03 09:11:50;;;;;;;4.22;3.83;;;;;;;;;;4991741;28;20444;-77
2022/05/03 09:14:39;;;;;;;7.72;3.58;;;;;;;;;;5006327;28;20038;-79
2022/05/03 09:17:05;;;;;;;4.18;3.40;;;;;;;;;;4993116;28;20066;-78
2022/05/03 09:19:31;;;;;;;7.40;3.70;;;;;;;;;;4990859;28;20034;-74
2022/05/03 09:25:04;;;;;;;7.65;3.72;;;;;;;;;;4990665;28;20066;-77
2022/05/03 09:27:31;;;;;;;5.22;3.58;;;;;;;;;;4989116;28;20375;-77
2022/05/03 09:30:08;;;;;;;8.23;3.70;;;;;;;;;;4987610;28;20050;-78
2022/05/03 09:32:43;;;;;;;6.00;3.33;;;;;;;;;;4987080;28;20019;-76
2022/05/03 09:35:32;;;;;;;6.97;3.72;;;;;;;;;;4989762;28;20097;-76
2022/05/03 09:37:57;;;;;;;12.32;4.00;;;;;;;;;;4989296;28;20152;-76
2022/05/03 09:40:23;;;;;;;4.57;3.13;;;;;;;;;;4987423;28;20046;-77
2022/05/03 09:42:56;;;;;;;7.95;2.85;;;;;;;;;;4989723;28;20037;-76
2022/05/03 09:45:28;;;;;;;5.05;3.47;;;;;;;;;;4989573;28;20613;-76
2022/05/03 09:47:56;;;;;;;5.15;3.58;;;;;;;;;;4987650;28;20120;-76
2022/05/03 09:50:27;;;;;;;5.10;3.42;;;;;;;;;;4988669;28;20114;-77
2022/05/03 09:52:53;;;;;;;7.38;3.60;;;;;;;;;;4989432;28;20037;-77
2022/05/03 09:55:30;;;;;;;5.68;3.13;;;;;;;;;;4988535;28;20040;-76
2022/05/03 09:57:57;;;;;;;4.50;2.95;;;;;;;;;;5003504;28;20526;-76
2022/05/03 10:00:22;;;;;;;5.25;3.60;;;;;;;;;;4987929;28;20035;-76
2022/05/03 10:02:48;;;;;;;8.10;3.60;;;;;;;;;;4988450;28;20149;-77
2022/05/03 10:05:16;;;;;;;5.22;3.90;;;;;;;;;;4989814;28;20030;-76
2022/05/03 10:07:43;;;;;;;4.68;3.55;;;;;;;;;;4988316;28;20038;-77
2022/05/03 10:10:09;;;;;;;7.35;3.60;;;;;;;;;;4988888;28;20031;-76
2022/05/03 10:12:36;;;;;;;8.43;3.60;;;;;;;;;;4983144;28;20081;-76
2022/05/03 10:15:02;;;;;;;7.63;3.70;;;;;;;;;;4975107;28;20526;-77
2022/05/03 10:23:19;;;;;;;4.25;3.28;;;;;;;;;;4989800;28;20605;-76
2022/05/03 10:25:45;;;;;;;6.32;3.00;;;;;;;;;;4990018;28;20077;-75
2022/05/03 10:28:10;;;;;;;6.90;3.50;;;;;;;;;;4990805;28;20031;-77
2022/05/03 10:30:38;;;;;;;3.60;3.00;;;;;;;;;;4989603;28;20043;-79
2022/05/03 10:33:19;;;;;;;3.60;2.95;;;;;;;;;;4991558;28;20034;-78
2022/05/03 10:35:48;;;;;;;5.43;3.38;;;;;;;;;;4990641;28;20485;-80
2022/05/03 10:38:14;;;;;;;6.78;3.38;;;;;;;;;;4992369;28;20050;-80
2022/05/03 10:40:43;;;;;;;5.80;3.20;;;;;;;;;;4992190;28;20035;-80
2022/05/03 10:43:14;;;;;;;5.70;3.38;;;;;;;;;;4988031;28;20042;-77
2022/05/03 10:45:51;;;;;;;3.50;3.20;;;;;;;;;;4990073;28;20069;-79
2022/05/03 10:48:29;;;;;;;6.10;3.15;;;;;;;;;;4989155;28;20129;-82
2022/05/03 10:51:00;;;;;;;4.03;3.30;;;;;;;;;;4991033;28;20034;-79
2022/05/03 10:53:32;;;;;;;4.63;3.13;;;;;;;;;;4991889;28;20042;-80
2022/05/03 10:56:12;;;;;;;3.80;3.17;;;;;;;;;;4991106;28;20054;-79
2022/05/03 10:58:40;;;;;;;6.45;3.17;;;;;;;;;;4991177;28;20030;-80
2022/05/03 11:01:10;;;;;;;6.43;3.30;;;;;;;;;;4991282;28;20348;-77
2022/05/03 11:03:39;;;;;;;4.28;3.15;;;;;;;;;;4986032;28;21617;-76
2022/05/03 11:06:23;;;;;;;4.47;3.38;;;;;;;;;;4985965;28;20402;-77
2022/05/03 11:11:47;;;;;;;6.57;3.05;;;;;;;;;;4995841;28;20030;-75
2022/05/03 11:14:16;;;;;;;5.00;3.38;;;;;;;;;;4996578;28;20053;-74
2022/05/03 11:16:47;;;;;;;4.68;2.95;;;;;;;;;;4992099;28;20405;-79
2022/05/03 11:19:16;;;;;;;6.53;3.20;;;;;;;;;;4995098;28;20030;-79
2022/05/03 11:21:43;;;;;;;5.63;3.20;;;;;;;;;;4992919;28;20034;-76
2022/05/03 11:24:22;;;;;;;6.82;3.40;;;;;;;;;;4993685;28;20506;-77
2022/05/03 11:26:55;;;;;;;4.82;3.78;;;;;;;;;;4987749;28;20034;-75
2022/05/03 11:29:26;;;;;;;5.43;3.35;;;;;;;;;;4995274;28;20608;-77
2022/05/03 11:31:52;;;;;;;8.25;4.00;;;;;;;;;;4990234;28;20062;-79
2022/05/03 11:34:18;;;;;;;6.25;3.63;;;;;;;;;;4992216;28;20104;-78
2022/05/03 11:36:50;;;;;;;5.68;3.70;;;;;;;;;;4990186;28;20046;-77
2022/05/03 11:39:18;;;;;;;4.13;3.27;;;;;;;;;;5007793;28;20497;-78
2022/05/03 11:41:44;;;;;;;5.43;3.75;;;;;;;;;;4992562;28;20019;-78
2022/05/03 11:44:10;;;;;;;6.03;3.80;;;;;;;;;;5000992;28;20037;-76
2022/05/03 11:46:40;;;;;;;7.35;3.97;;;;;;;;;;4998830;28;20030;-79
2022/05/03 11:49:07;;;;;;;6.32;4.30;;;;;;;;;;4994040;28;20042;-86
2022/05/03 11:57:10;;;;;;;6.13;3.60;;;;;;;;;;4994369;28;20096;-79
2022/05/03 11:59:36;;;;;;;4.20;3.42;;;;;;;;;;4992997;28;20496;-78
2022/05/03 12:02:29;;;;;;;3.55;3.03;;;;;;;;;;4992303;28;20037;-80
2022/05/03 12:05:07;;;;;;;6.07;3.40;;;;;;;;;;5007248;28;20042;-82
2022/05/03 12:07:36;;;;;;;6.82;3.65;;;;;;;;;;4996513;28;20034;-84
2022/05/03 12:10:19;;;;;;;5.70;3.45;;;;;;;;;;4996428;28;20436;-80
2022/05/03 12:12:46;;;;;;;7.15;3.78;;;;;;;;;;4993709;28;20462;-79
2022/05/03 12:15:26;;;;;;;8.23;3.40;;;;;;;;;;4993099;28;20046;-83
2022/05/03 12:17:55;;;;;;;6.45;3.35;;;;;;;;;;4978792;28;20035;-85
2022/05/03 12:20:21;;;;;;;5.95;3.63;;;;;;;;;;4996215;28;20042;-79
2022/05/03 12:23:26;;;;;;;8.05;3.50;;;;;;;;;;4994160;28;20157;-83
2022/05/03 12:25:54;;;;;;;6.93;3.80;;;;;;;;;;4982731;28;20070;-78
2022/05/03 12:28:33;;;;;;;5.35;3.70;;;;;;;;;;4993996;28;20441;-80
2022/05/03 12:30:59;;;;;;;5.68;3.40;;;;;;;;;;4991426;28;20038;-81
2022/05/03 12:33:27;;;;;;;6.28;3.60;;;;;;;;;;4995247;28;20069;-82
2022/05/03 12:35:53;;;;;;;4.05;3.20;;;;;;;;;;4992136;28;20031;-82
2022/05/03 12:38:21;;;;;;;5.47;3.30;;;;;;;;;;4994856;28;20023;-85
2022/05/03 12:40:53;;;;;;;4.50;3.25;;;;;;;;;;4997351;28;20050;-78
2022/05/03 12:43:21;;;;;;;7.45;3.45;;;;;;;;;;4992246;28;20415;-78
2022/05/03 12:45:57;;;;;;;6.88;3.30;;;;;;;;;;5006536;28;20046;-78
2022/05/03 12:48:23;;;;;;;5.43;3.28;;;;;;;;;;5006751;28;20582;-76
2022/05/03 12:50:49;;;;;;;7.68;3.30;;;;;;;;;;4994383;28;20223;-83
2022/05/03 12:53:15;;;;;;;3.63;3.00;;;;;;;;;;4998919;28;20019;-79
2022/05/03 12:55:40;;;;;;;5.05;2.92;;;;;;;;;;4991272;28;20576;-80
2022/05/03 12:58:24;;;;;;;4.45;3.03;;;;;;;;;;4991155;28;20074;-82
2022/05/03 13:00:55;;;;;;;5.50;3.58;;;;;;;;;;4993086;28;20045;-78
2022/05/03 13:03:21;;;;;;;4.82;3.33;;;;;;;;;;4990458;28;20038;-78
2022/05/03 13:05:48;;;;;;;4.90;3.50;;;;;;;;;;4988385;28;20022;-78
2022/05/03 13:08:16;;;;;;;6.78;3.28;;;;;;;;;;4990135;28;20031;-76
2022/05/03 13:10:41;;;;;;;5.55;3.03;;;;;;;;;;4991124;28;20034;-76
2022/05/03 13:13:08;;;;;;;5.10;3.25;;;;;;;;;;4988465;28;20050;-74
2022/05/03 13:15:34;;;;;;;5.22;3.17;;;;;;;;;;4989091;28;20093;-74
2022/05/03 13:18:00;;;;;;;8.18;3.20;;;;;;;;;;4988244;28;20046;-75
2022/05/03 13:20:28;;;;;;;3.25;2.97;;;;;;;;;;4990908;28;20037;-76
2022/05/03 13:22:54;;;;;;;7.13;3.40;;;;;;;;;;4989781;28;20035;-77
2022/05/03 13:25:21;;;;;;;5.20;3.03;;;;;;;;;;4988385;28;20498;-78
2022/05/03 13:27:47;;;;;;;4.82;2.97;;;;;;;;;;4990535;28;20034;-77
2022/05/03 13:30:13;;;;;;;4.80;3.38;;;;;;;;;;4988985;28;20399;-76
2022/05/03 13:32:38;;;;;;;6.50;3.20;;;;;;;;;;4988960;28;20469;-75
2022/05/03 13:35:04;;;;;;;6.50;3.05;;;;;;;;;;4989926;28;20022;-76
2022/05/03 13:40:28;;;;;;;3.95;2.80;;;;;;;;;;4987823;28;20112;-75
2022/05/03 13:42:54;;;;;;;5.32;3.20;;;;;;;;;;4989494;28;20036;-75
2022/05/03 13:45:20;;;;;;;7.03;3.38;;;;;;;;;;4988721;28;20486;-75
2022/05/03 13:47:45;;;;;;;6.10;3.30;;;;;;;;;;4988953;28;20033;-76
2022/05/03 13:50:12;;;;;;;3.78;2.88;;;;;;;;;;5006509;28;20049;-75
2022/05/03 13:52:38;;;;;;;5.10;3.20;;;;;;;;;;4990742;28;20034;-76
2022/05/03 13:55:04;;;;;;;7.45;3.13;;;;;;;;;;4988447;28;20046;-76
2022/05/03 13:57:31;;;;;;;7.05;3.13;;;;;;;;;;4990052;28;20062;-77
2022/05/03 13:59:57;;;;;;;4.65;3.28;;;;;;;;;;4988612;28;20410;-76
2022/05/03 14:02:22;;;;;;;3.30;3.00;;;;;;;;;;4990277;28;20034;-78
2022/05/03 14:04:48;;;;;;;3.15;2.83;;;;;;;;;;4990254;28;20052;-78
2022/05/03 14:07:13;;;;;;;3.72;3.10;;;;;;;;;;4986408;28;20038;-77
2022/05/03 14:09:38;;;;;;;3.63;3.00;;;;;;;;;;4990627;28;20038;-77
2022/05/03 14:12:06;;;;;;;5.90;3.13;;;;;;;;;;4989582;28;20107;-77
2022/05/03 14:14:32;;;;;;;3.97;2.90;;;;;;;;;;4991159;28;20030;-75
2022/05/03 14:16:57;;;;;;;4.82;2.88;;;;;;;;;;4988056;28;20567;-75
2022/05/03 14:19:22;;;;;;;5.10;2.97;;;;;;;;;;4990642;28;20421;-78
2022/05/03 14:21:48;;;;;;;5.15;3.20;;;;;;;;;;4991227;28;20038;-77
2022/05/03 14:24:14;;;;;;;9.25;3.83;;;;;;;;;;4987969;28;20081;-77
2022/05/03 14:26:39;;;;;;;6.75;3.22;;;;;;;;;;4989234;28;20034;-77
2022/05/03 14:29:07;;;;;;;4.90;3.35;;;;;;;;;;4991509;28;20026;-77
2022/05/03 14:31:36;;;;;;;4.40;3.20;;;;;;;;;;4989963;28;20042;-76
2022/05/03 14:34:02;;;;;;;3.92;3.22;;;;;;;;;;4989063;28;20070;-77
2022/05/03 14:36:28;;;;;;;6.45;3.17;;;;;;;;;;4992358;28;20104;-78
2022/05/03 14:38:54;;;;;;;7.07;3.13;;;;;;;;;;4992503;28;20038;-79
2022/05/03 14:41:20;;;;;;;3.78;3.05;;;;;;;;;;4992809;28;20037;-79
2022/05/03 14:43:46;;;;;;;5.35;3.45;;;;;;;;;;4991291;28;20042;-75
2022/05/03 14:46:12;;;;;;;5.80;3.17;;;;;;;;;;4992345;28;20046;-75
2022/05/03 14:48:37;;;;;;;5.03;3.15;;;;;;;;;;4993664;28;20048;-76
2022/05/03 14:51:03;;;;;;;4.57;2.95;;;;;;;;;;4993383;28;20379;-77
2022/05/03 14:53:29;;;;;;;3.80;2.97;;;;;;;;;;4993327;28;20031;-76
2022/05/03 15:04:07;;;;;;;4.68;3.30;;;;;;;;;;4993540;28;20084;-76
2022/05/03 15:06:33;;;;;;;4.43;3.33;;;;;;;;;;4993016;28;20031;-77
2022/05/03 15:08:59;;;;;;;3.92;2.83;;;;;;;;;;4992872;28;20517;-75
2022/05/03 15:11:24;;;;;;;3.72;3.00;;;;;;;;;;4992585;28;20038;-75
2022/05/03 15:13:50;;;;;;;6.35;2.92;;;;;;;;;;4993587;28;20034;-77
2022/05/03 15:16:15;;;;;;;7.88;3.00;;;;;;;;;;4995413;28;20426;-75
2022/05/03 15:18:44;;;;;;;3.83;3.17;;;;;;;;;;4993975;28;20037;-75
2022/05/03 15:21:11;;;;;;;6.22;3.33;;;;;;;;;;4993708;28;20040;-77
2022/05/03 15:26:20;;;;;;;4.07;3.33;;;;;;;;;;4994546;28;20037;-75
2022/05/03 15:28:46;;;;;;;4.80;3.10;;;;;;;;;;4993317;28;20030;-76
2022/05/03 15:31:11;;;;;;;6.47;3.28;;;;;;;;;;4993547;28;20042;-75
2022/05/03 15:33:36;;;;;;;3.70;3.20;;;;;;;;;;4992297;28;20037;-76
2022/05/03 15:36:02;;;;;;;7.82;3.00;;;;;;;;;;4993206;28;20050;-77
2022/05/03 15:38:27;;;;;;;6.40;3.25;;;;;;;;;;4990169;28;20064;-76
2022/05/03 15:40:53;;;;;;;4.32;3.00;;;;;;;;;;4991860;28;20054;-77
2022/05/03 15:43:19;;;;;;;7.05;3.58;;;;;;;;;;5006202;28;20077;-76
2022/05/03 15:45:44;;;;;;;5.57;3.42;;;;;;;;;;4993170;28;20100;-75
2022/05/03 15:48:10;;;;;;;4.35;3.30;;;;;;;;;;4992245;28;20042;-76